sensor_id;sensor_type;location;lat;lon;timestamp;P1;durP1;ratioP1;P2;durP2;ratioP2
14241;SDS011;7205;50.864;12.766;2023-07-08T00:02:09;7.77;;;3.07;;
14241;SDS011;7205;50.864;12.766;2023-07-08T00:04:36;4.87;;;2.87;;
14241;SDS011;7205;50.864;12.766;2023-07-08T00:07:03;3.90;;;2.90;;
14241;SDS011;7205;50.864;12.766;2023-07-08T00:09:31;7.77;;;3.37;;
14241;SDS011;7205;50.864;12.766;2023-07-08T00:11:58;3.10;;;2.90;;
14241;SDS011;7205;50.864;12.766;2023-07-08T00:14:24;3.93;;;3.10;;
14241;SDS011;7205;50.864;12.766;2023-07-08T00:16:53;6.00;;;3.43;;
14241;SDS011;7205;50.864;12.766;2023-07-08T00:19:19;5.43;;;2.70;;
14241;SDS011;7205;50.864;12.766;2023-07-08T00:21:49;3.97;;;3.60;;
14241;SDS011;7205;50.864;12.766;2023-07-08T00:24:18;3.27;;;3.07;;
14241;SDS011;7205;50.864;12.766;2023-07-08T00:26:45;3.40;;;3.17;;
14241;SDS011;7205;50.864;12.766;2023-07-08T00:29:11;4.13;;;3.00;;
14241;SDS011;7205;50.864;12.766;2023-07-08T00:31:42;3.13;;;2.93;;
14241;SDS011;7205;50.864;12.766;2023-07-08T00:34:10;3.50;;;3.17;;
14241;SDS011;7205;50.864;12.766;2023-07-08T00:36:37;3.67;;;3.27;;
14241;SDS011;7205;50.864;12.766;2023-07-08T00:39:07;3.20;;;3.00;;
14241;SDS011;7205;50.864;12.766;2023-07-08T00:41:39;3.03;;;2.70;;
14241;SDS011;7205;50.864;12.766;2023-07-08T00:44:08;4.40;;;3.10;;
14241;SDS011;7205;50.864;12.766;2023-07-08T00:46:40;7.90;;;2.87;;
14241;SDS011;7205;50.864;12.766;2023-07-08T00:49:17;3.13;;;2.83;;
14241;SDS011;7205;50.864;12.766;2023-07-08T00:51:51;3.70;;;3.40;;
14241;SDS011;7205;50.864;12.766;2023-07-08T00:54:18;4.10;;;3.13;;
14241;SDS011;7205;50.864;12.766;2023-07-08T00:56:49;3.33;;;2.87;;
14241;SDS011;7205;50.864;12.766;2023-07-08T00:59:20;3.13;;;2.80;;
14241;SDS011;7205;50.864;12.766;2023-07-08T01:01:49;3.23;;;2.90;;
14241;SDS011;7205;50.864;12.766;2023-07-08T01:04:20;4.63;;;2.50;;
14241;SDS011;7205;50.864;12.766;2023-07-08T01:06:59;3.00;;;2.70;;
14241;SDS011;7205;50.864;12.766;2023-07-08T01:09:28;3.47;;;3.17;;
14241;SDS011;7205;50.864;12.766;2023-07-08T01:12:00;5.67;;;2.77;;
14241;SDS011;7205;50.864;12.766;2023-07-08T01:14:31;4.60;;;2.77;;
14241;SDS011;7205;50.864;12.766;2023-07-08T01:17:01;2.60;;;2.40;;
14241;SDS011;7205;50.864;12.766;2023-07-08T01:19:29;2.90;;;2.70;;
14241;SDS011;7205;50.864;12.766;2023-07-08T01:22:00;4.60;;;2.97;;
14241;SDS011;7205;50.864;12.766;2023-07-08T01:24:28;2.83;;;2.67;;
14241;SDS011;7205;50.864;12.766;2023-07-08T01:26:57;2.73;;;2.63;;
14241;SDS011;7205;50.864;12.766;2023-07-08T01:29:27;7.67;;;2.80;;
14241;SDS011;7205;50.864;12.766;2023-07-08T01:31:54;2.73;;;2.53;;
14241;SDS011;7205;50.864;12.766;2023-07-08T01:34:21;2.83;;;2.63;;
14241;SDS011;7205;50.864;12.766;2023-07-08T01:36:49;4.67;;;2.70;;
14241;SDS011;7205;50.864;12.766;2023-07-08T01:39:20;3.50;;;2.83;;
14241;SDS011;7205;50.864;12.766;2023-07-08T01:41:48;2.97;;;2.67;;
14241;SDS011;7205;50.864;12.766;2023-07-08T01:44:18;2.87;;;2.67;;
14241;SDS011;7205;50.864;12.766;2023-07-08T01:46:47;3.33;;;2.63;;
14241;SDS011;7205;50.864;12.766;2023-07-08T01:49:15;5.07;;;2.73;;
14241;SDS011;7205;50.864;12.766;2023-07-08T01:51:42;2.90;;;2.70;;
14241;SDS011;7205;50.864;12.766;2023-07-08T01:54:09;3.20;;;2.90;;
14241;SDS011;7205;50.864;12.766;2023-07-08T01:56:39;4.73;;;2.80;;
14241;SDS011;7205;50.864;12.766;2023-07-08T01:59:05;2.80;;;2.60;;
14241;SDS011;7205;50.864;12.766;2023-07-08T02:01:32;3.93;;;3.63;;
14241;SDS011;7205;50.864;12.766;2023-07-08T02:03:59;2.70;;;2.50;;
14241;SDS011;7205;50.864;12.766;2023-07-08T02:06:26;6.03;;;2.80;;
14241;SDS011;7205;50.864;12.766;2023-07-08T02:08:53;2.60;;;2.40;;
14241;SDS011;7205;50.864;12.766;2023-07-08T02:11:24;2.70;;;2.53;;
14241;SDS011;7205;50.864;12.766;2023-07-08T02:13:52;4.97;;;2.90;;
14241;SDS011;7205;50.864;12.766;2023-07-08T02:16:20;6.47;;;3.13;;
14241;SDS011;7205;50.864;12.766;2023-07-08T02:18:46;3.30;;;2.97;;
14241;SDS011;7205;50.864;12.766;2023-07-08T02:21:13;2.50;;;2.30;;
14241;SDS011;7205;50.864;12.766;2023-07-08T02:23:45;2.87;;;2.63;;
14241;SDS011;7205;50.864;12.766;2023-07-08T02:26:16;3.00;;;2.80;;
14241;SDS011;7205;50.864;12.766;2023-07-08T02:28:43;3.27;;;2.97;;
14241;SDS011;7205;50.864;12.766;2023-07-08T02:31:11;2.97;;;2.77;;
14241;SDS011;7205;50.864;12.766;2023-07-08T02:33:38;3.13;;;2.50;;
14241;SDS011;7205;50.864;12.766;2023-07-08T02:36:05;3.17;;;2.73;;
14241;SDS011;7205;50.864;12.766;2023-07-08T02:38:32;3.50;;;3.00;;
14241;SDS011;7205;50.864;12.766;2023-07-08T02:40:59;4.67;;;3.20;;
14241;SDS011;7205;50.864;12.766;2023-07-08T02:43:26;2.83;;;2.67;;
14241;SDS011;7205;50.864;12.766;2023-07-08T02:45:53;3.37;;;3.07;;
14241;SDS011;7205;50.864;12.766;2023-07-08T02:48:21;2.80;;;2.60;;
14241;SDS011;7205;50.864;12.766;2023-07-08T02:50:48;3.10;;;2.80;;
14241;SDS011;7205;50.864;12.766;2023-07-08T02:53:15;3.17;;;2.90;;
14241;SDS011;7205;50.864;12.766;2023-07-08T02:55:42;3.03;;;2.73;;
14241;SDS011;7205;50.864;12.766;2023-07-08T02:58:09;2.70;;;2.50;;
14241;SDS011;7205;50.864;12.766;2023-07-08T03:00:36;3.20;;;2.87;;
14241;SDS011;7205;50.864;12.766;2023-07-08T03:03:03;4.63;;;2.40;;
14241;SDS011;7205;50.864;12.766;2023-07-08T03:05:31;4.53;;;2.80;;
14241;SDS011;7205;50.864;12.766;2023-07-08T03:07:59;2.70;;;2.50;;
14241;SDS011;7205;50.864;12.766;2023-07-08T03:10:26;2.60;;;2.40;;
14241;SDS011;7205;50.864;12.766;2023-07-08T03:12:52;2.73;;;2.53;;
14241;SDS011;7205;50.864;12.766;2023-07-08T03:15:19;5.07;;;2.77;;
14241;SDS011;7205;50.864;12.766;2023-07-08T03:17:46;2.90;;;2.70;;
14241;SDS011;7205;50.864;12.766;2023-07-08T03:20:13;5.57;;;2.60;;
14241;SDS011;7205;50.864;12.766;2023-07-08T03:22:41;3.70;;;2.60;;
14241;SDS011;7205;50.864;12.766;2023-07-08T03:25:08;2.60;;;2.40;;
14241;SDS011;7205;50.864;12.766;2023-07-08T03:27:36;2.80;;;2.60;;
14241;SDS011;7205;50.864;12.766;2023-07-08T03:30:04;4.30;;;2.80;;
14241;SDS011;7205;50.864;12.766;2023-07-08T03:32:33;7.53;;;2.77;;
14241;SDS011;7205;50.864;12.766;2023-07-08T03:35:01;2.80;;;2.60;;
14241;SDS011;7205;50.864;12.766;2023-07-08T03:37:28;2.40;;;2.30;;
14241;SDS011;7205;50.864;12.766;2023-07-08T03:39:57;2.53;;;2.33;;
14241;SDS011;7205;50.864;12.766;2023-07-08T03:42:24;3.73;;;2.97;;
14241;SDS011;7205;50.864;12.766;2023-07-08T03:44:51;2.93;;;2.63;;
14241;SDS011;7205;50.864;12.766;2023-07-08T03:47:17;3.70;;;2.70;;
14241;SDS011;7205;50.864;12.766;2023-07-08T03:49:46;4.20;;;2.33;;
14241;SDS011;7205;50.864;12.766;2023-07-08T03:52:14;2.83;;;2.63;;
14241;SDS011;7205;50.864;12.766;2023-07-08T03:54:43;5.40;;;2.80;;
14241;SDS011;7205;50.864;12.766;2023-07-08T03:57:13;2.60;;;2.40;;
14241;SDS011;7205;50.864;12.766;2023-07-08T03:59:41;2.70;;;2.50;;
14241;SDS011;7205;50.864;12.766;2023-07-08T04:02:08;4.13;;;2.60;;
14241;SDS011;7205;50.864;12.766;2023-07-08T04:04:36;3.20;;;2.37;;
14241;SDS011;7205;50.864;12.766;2023-07-08T04:07:04;2.90;;;2.70;;
14241;SDS011;7205;50.864;12.766;2023-07-08T04:09:31;3.33;;;2.43;;
14241;SDS011;7205;50.864;12.766;2023-07-08T04:11:58;2.50;;;2.37;;
14241;SDS011;7205;50.864;12.766;2023-07-08T04:14:26;2.90;;;2.60;;
14241;SDS011;7205;50.864;12.766;2023-07-08T04:16:55;2.87;;;2.57;;
14241;SDS011;7205;50.864;12.766;2023-07-08T04:19:24;3.27;;;2.97;;
14241;SDS011;7205;50.864;12.766;2023-07-08T04:21:52;4.57;;;2.70;;
14241;SDS011;7205;50.864;12.766;2023-07-08T04:24:19;3.20;;;2.50;;
14241;SDS011;7205;50.864;12.766;2023-07-08T04:26:46;3.90;;;2.30;;
14241;SDS011;7205;50.864;12.766;2023-07-08T04:29:15;2.97;;;2.47;;
14241;SDS011;7205;50.864;12.766;2023-07-08T04:31:43;2.10;;;2.00;;
14241;SDS011;7205;50.864;12.766;2023-07-08T04:34:11;2.40;;;2.30;;
14241;SDS011;7205;50.864;12.766;2023-07-08T04:36:38;2.70;;;2.50;;
14241;SDS011;7205;50.864;12.766;2023-07-08T04:39:05;2.73;;;2.53;;
14241;SDS011;7205;50.864;12.766;2023-07-08T04:41:33;3.03;;;2.83;;
14241;SDS011;7205;50.864;12.766;2023-07-08T04:44:05;3.17;;;2.40;;
14241;SDS011;7205;50.864;12.766;2023-07-08T04:46:34;3.53;;;2.50;;
14241;SDS011;7205;50.864;12.766;2023-07-08T04:49:05;3.33;;;2.73;;
14241;SDS011;7205;50.864;12.766;2023-07-08T04:51:34;5.53;;;2.83;;
14241;SDS011;7205;50.864;12.766;2023-07-08T04:54:01;3.93;;;2.40;;
14241;SDS011;7205;50.864;12.766;2023-07-08T04:56:34;3.40;;;2.50;;
14241;SDS011;7205;50.864;12.766;2023-07-08T04:59:02;2.93;;;2.57;;
14241;SDS011;7205;50.864;12.766;2023-07-08T05:01:30;5.00;;;2.40;;
14241;SDS011;7205;50.864;12.766;2023-07-08T05:03:57;2.53;;;2.37;;
14241;SDS011;7205;50.864;12.766;2023-07-08T05:06:26;2.53;;;2.40;;
14241;SDS011;7205;50.864;12.766;2023-07-08T05:08:53;3.27;;;2.40;;
14241;SDS011;7205;50.864;12.766;2023-07-08T05:11:20;3.53;;;2.93;;
14241;SDS011;7205;50.864;12.766;2023-07-08T05:13:47;4.50;;;2.70;;
14241;SDS011;7205;50.864;12.766;2023-07-08T05:16:14;2.30;;;2.10;;
14241;SDS011;7205;50.864;12.766;2023-07-08T05:18:41;2.80;;;2.50;;
14241;SDS011;7205;50.864;12.766;2023-07-08T05:21:08;2.47;;;2.20;;
14241;SDS011;7205;50.864;12.766;2023-07-08T05:23:36;4.00;;;3.10;;
14241;SDS011;7205;50.864;12.766;2023-07-08T05:26:04;3.30;;;3.10;;
14241;SDS011;7205;50.864;12.766;2023-07-08T05:28:32;3.73;;;3.50;;
14241;SDS011;7205;50.864;12.766;2023-07-08T05:31:00;4.83;;;3.33;;
14241;SDS011;7205;50.864;12.766;2023-07-08T05:33:27;5.03;;;3.30;;
14241;SDS011;7205;50.864;12.766;2023-07-08T05:35:55;7.93;;;3.40;;
14241;SDS011;7205;50.864;12.766;2023-07-08T05:38:23;4.17;;;3.63;;
14241;SDS011;7205;50.864;12.766;2023-07-08T05:40:53;5.90;;;5.27;;
14241;SDS011;7205;50.864;12.766;2023-07-08T05:43:22;7.10;;;6.40;;
14241;SDS011;7205;50.864;12.766;2023-07-08T05:45:49;6.60;;;5.90;;
14241;SDS011;7205;50.864;12.766;2023-07-08T05:48:15;4.97;;;4.67;;
14241;SDS011;7205;50.864;12.766;2023-07-08T05:50:42;4.03;;;3.77;;
14241;SDS011;7205;50.864;12.766;2023-07-08T05:53:11;4.53;;;3.77;;
14241;SDS011;7205;50.864;12.766;2023-07-08T05:55:39;3.83;;;3.60;;
14241;SDS011;7205;50.864;12.766;2023-07-08T05:58:09;5.83;;;3.70;;
14241;SDS011;7205;50.864;12.766;2023-07-08T06:00:35;3.70;;;3.50;;
14241;SDS011;7205;50.864;12.766;2023-07-08T06:03:02;3.80;;;3.60;;
14241;SDS011;7205;50.864;12.766;2023-07-08T06:05:29;3.30;;;3.10;;
14241;SDS011;7205;50.864;12.766;2023-07-08T06:07:58;2.83;;;2.63;;
14241;SDS011;7205;50.864;12.766;2023-07-08T06:10:25;3.07;;;2.70;;
14241;SDS011;7205;50.864;12.766;2023-07-08T06:12:51;2.63;;;2.43;;
14241;SDS011;7205;50.864;12.766;2023-07-08T06:15:19;4.13;;;2.40;;
14241;SDS011;7205;50.864;12.766;2023-07-08T06:17:46;2.97;;;2.80;;
14241;SDS011;7205;50.864;12.766;2023-07-08T06:20:13;2.77;;;2.60;;
14241;SDS011;7205;50.864;12.766;2023-07-08T06:22:40;5.83;;;3.80;;
14241;SDS011;7205;50.864;12.766;2023-07-08T06:25:07;4.90;;;4.40;;
14241;SDS011;7205;50.864;12.766;2023-07-08T06:27:34;4.27;;;3.90;;
14241;SDS011;7205;50.864;12.766;2023-07-08T06:30:01;7.23;;;4.30;;
14241;SDS011;7205;50.864;12.766;2023-07-08T06:32:29;4.77;;;4.33;;
14241;SDS011;7205;50.864;12.766;2023-07-08T06:34:56;4.07;;;3.70;;
14241;SDS011;7205;50.864;12.766;2023-07-08T06:37:23;4.33;;;2.93;;
14241;SDS011;7205;50.864;12.766;2023-07-08T06:39:50;3.80;;;3.57;;
14241;SDS011;7205;50.864;12.766;2023-07-08T06:42:16;3.60;;;3.30;;
14241;SDS011;7205;50.864;12.766;2023-07-08T06:44:52;5.23;;;3.67;;
14241;SDS011;7205;50.864;12.766;2023-07-08T06:47:19;4.10;;;3.13;;
14241;SDS011;7205;50.864;12.766;2023-07-08T06:49:48;3.80;;;3.10;;
14241;SDS011;7205;50.864;12.766;2023-07-08T06:52:15;3.30;;;3.00;;
14241;SDS011;7205;50.864;12.766;2023-07-08T06:54:42;4.77;;;3.47;;
14241;SDS011;7205;50.864;12.766;2023-07-08T06:57:08;6.17;;;2.90;;
14241;SDS011;7205;50.864;12.766;2023-07-08T06:59:36;3.60;;;2.70;;
14241;SDS011;7205;50.864;12.766;2023-07-08T07:02:03;3.03;;;2.80;;
14241;SDS011;7205;50.864;12.766;2023-07-08T07:04:30;3.60;;;3.30;;
14241;SDS011;7205;50.864;12.766;2023-07-08T07:06:59;3.70;;;3.40;;
14241;SDS011;7205;50.864;12.766;2023-07-08T07:09:26;4.47;;;3.40;;
14241;SDS011;7205;50.864;12.766;2023-07-08T07:11:52;4.63;;;2.80;;
14241;SDS011;7205;50.864;12.766;2023-07-08T07:14:19;4.00;;;3.47;;
14241;SDS011;7205;50.864;12.766;2023-07-08T07:16:46;4.00;;;3.07;;
14241;SDS011;7205;50.864;12.766;2023-07-08T07:19:13;3.60;;;3.30;;
14241;SDS011;7205;50.864;12.766;2023-07-08T07:21:39;5.13;;;3.17;;
14241;SDS011;7205;50.864;12.766;2023-07-08T07:24:08;4.90;;;2.90;;
14241;SDS011;7205;50.864;12.766;2023-07-08T07:26:34;3.10;;;2.90;;
14241;SDS011;7205;50.864;12.766;2023-07-08T07:29:02;5.03;;;3.13;;
14241;SDS011;7205;50.864;12.766;2023-07-08T07:31:28;3.25;;;3.05;;
14241;SDS011;7205;50.864;12.766;2023-07-08T07:33:58;3.60;;;3.30;;
14241;SDS011;7205;50.864;12.766;2023-07-08T07:36:25;3.40;;;3.20;;
14241;SDS011;7205;50.864;12.766;2023-07-08T07:38:52;3.25;;;3.05;;
14241;SDS011;7205;50.864;12.766;2023-07-08T07:41:20;3.70;;;3.40;;
14241;SDS011;7205;50.864;12.766;2023-07-08T07:43:48;3.78;;;3.50;;
14241;SDS011;7205;50.864;12.766;2023-07-08T07:46:15;3.42;;;3.13;;
14241;SDS011;7205;50.864;12.766;2023-07-08T07:48:42;3.72;;;3.42;;
14241;SDS011;7205;50.864;12.766;2023-07-08T07:51:09;3.40;;;3.20;;
14241;SDS011;7205;50.864;12.766;2023-07-08T07:53:37;3.70;;;3.25;;
14241;SDS011;7205;50.864;12.766;2023-07-08T07:56:04;5.57;;;3.42;;
14241;SDS011;7205;50.864;12.766;2023-07-08T07:58:33;3.25;;;3.03;;
14241;SDS011;7205;50.864;12.766;2023-07-08T08:01:00;4.22;;;3.13;;
14241;SDS011;7205;50.864;12.766;2023-07-08T08:03:27;3.20;;;2.92;;
14241;SDS011;7205;50.864;12.766;2023-07-08T08:05:53;4.90;;;3.35;;
14241;SDS011;7205;50.864;12.766;2023-07-08T08:08:20;5.18;;;3.05;;
14241;SDS011;7205;50.864;12.766;2023-07-08T08:10:47;3.60;;;3.20;;
14241;SDS011;7205;50.864;12.766;2023-07-08T08:13:15;3.38;;;3.08;;
14241;SDS011;7205;50.864;12.766;2023-07-08T08:15:43;6.15;;;3.60;;
14241;SDS011;7205;50.864;12.766;2023-07-08T08:18:09;5.65;;;3.28;;
14241;SDS011;7205;50.864;12.766;2023-07-08T08:20:36;3.63;;;3.15;;
14241;SDS011;7205;50.864;12.766;2023-07-08T08:23:05;8.82;;;3.20;;
14241;SDS011;7205;50.864;12.766;2023-07-08T08:25:34;4.53;;;3.55;;
14241;SDS011;7205;50.864;12.766;2023-07-08T08:28:01;3.30;;;2.92;;
14241;SDS011;7205;50.864;12.766;2023-07-08T08:30:27;3.50;;;3.30;;
14241;SDS011;7205;50.864;12.766;2023-07-08T08:32:55;5.38;;;2.75;;
14241;SDS011;7205;50.864;12.766;2023-07-08T08:35:22;3.25;;;3.03;;
14241;SDS011;7205;50.864;12.766;2023-07-08T08:37:49;2.92;;;2.67;;
14241;SDS011;7205;50.864;12.766;2023-07-08T08:40:16;2.92;;;2.70;;
14241;SDS011;7205;50.864;12.766;2023-07-08T08:42:45;5.30;;;2.80;;
14241;SDS011;7205;50.864;12.766;2023-07-08T08:45:18;3.08;;;2.88;;
14241;SDS011;7205;50.864;12.766;2023-07-08T08:47:47;4.32;;;2.90;;
14241;SDS011;7205;50.864;12.766;2023-07-08T08:50:23;3.50;;;2.90;;
14241;SDS011;7205;50.864;12.766;2023-07-08T08:52:56;3.30;;;3.10;;
14241;SDS011;7205;50.864;12.766;2023-07-08T08:55:25;3.50;;;3.20;;
14241;SDS011;7205;50.864;12.766;2023-07-08T08:58:04;2.95;;;2.60;;
14241;SDS011;7205;50.864;12.766;2023-07-08T09:00:44;3.30;;;3.00;;
14241;SDS011;7205;50.864;12.766;2023-07-08T09:03:21;3.42;;;3.10;;
14241;SDS011;7205;50.864;12.766;2023-07-08T09:06:00;4.70;;;3.22;;
14241;SDS011;7205;50.864;12.766;2023-07-08T09:08:34;3.40;;;3.00;;
14241;SDS011;7205;50.864;12.766;2023-07-08T09:11:04;3.75;;;3.05;;
14241;SDS011;7205;50.864;12.766;2023-07-08T09:13:41;5.35;;;2.90;;
14241;SDS011;7205;50.864;12.766;2023-07-08T09:16:10;3.40;;;3.20;;
14241;SDS011;7205;50.864;12.766;2023-07-08T09:18:47;3.63;;;2.80;;
14241;SDS011;7205;50.864;12.766;2023-07-08T09:21:25;4.10;;;3.70;;
14241;SDS011;7205;50.864;12.766;2023-07-08T09:23:57;3.45;;;2.88;;
14241;SDS011;7205;50.864;12.766;2023-07-08T09:26:28;3.47;;;3.22;;
14241;SDS011;7205;50.864;12.766;2023-07-08T09:28:58;3.25;;;2.90;;
14241;SDS011;7205;50.864;12.766;2023-07-08T09:31:26;3.28;;;2.95;;
14241;SDS011;7205;50.864;12.766;2023-07-08T09:34:04;3.42;;;3.10;;
14241;SDS011;7205;50.864;12.766;2023-07-08T09:36:38;3.45;;;3.00;;
14241;SDS011;7205;50.864;12.766;2023-07-08T09:39:08;3.75;;;3.45;;
14241;SDS011;7205;50.864;12.766;2023-07-08T09:41:36;3.38;;;3.08;;
14241;SDS011;7205;50.864;12.766;2023-07-08T09:44:04;3.17;;;2.97;;
14241;SDS011;7205;50.864;12.766;2023-07-08T09:46:42;3.10;;;2.90;;
14241;SDS011;7205;50.864;12.766;2023-07-08T09:49:14;2.97;;;2.78;;
14241;SDS011;7205;50.864;12.766;2023-07-08T09:51:44;4.70;;;3.22;;
14241;SDS011;7205;50.864;12.766;2023-07-08T09:54:11;3.50;;;3.10;;
14241;SDS011;7205;50.864;12.766;2023-07-08T09:56:40;3.17;;;2.97;;
14241;SDS011;7205;50.864;12.766;2023-07-08T09:59:11;3.80;;;3.42;;
14241;SDS011;7205;50.864;12.766;2023-07-08T10:01:40;3.63;;;3.22;;
14241;SDS011;7205;50.864;12.766;2023-07-08T10:04:08;4.72;;;3.70;;
14241;SDS011;7205;50.864;12.766;2023-07-08T10:06:35;3.50;;;3.20;;
14241;SDS011;7205;50.864;12.766;2023-07-08T10:09:04;3.42;;;3.22;;
14241;SDS011;7205;50.864;12.766;2023-07-08T10:11:36;5.00;;;3.33;;
14241;SDS011;7205;50.864;12.766;2023-07-08T10:14:09;3.22;;;2.88;;
14241;SDS011;7205;50.864;12.766;2023-07-08T10:16:39;4.40;;;3.00;;
14241;SDS011;7205;50.864;12.766;2023-07-08T10:19:09;3.25;;;3.00;;
14241;SDS011;7205;50.864;12.766;2023-07-08T10:21:41;3.33;;;2.92;;
14241;SDS011;7205;50.864;12.766;2023-07-08T10:24:20;3.22;;;2.85;;
14241;SDS011;7205;50.864;12.766;2023-07-08T10:26:57;3.40;;;3.20;;
14241;SDS011;7205;50.864;12.766;2023-07-08T10:29:32;3.20;;;3.00;;
14241;SDS011;7205;50.864;12.766;2023-07-08T10:32:07;3.97;;;3.00;;
14241;SDS011;7205;50.864;12.766;2023-07-08T10:34:42;3.17;;;2.97;;
14241;SDS011;7205;50.864;12.766;2023-07-08T10:37:18;5.68;;;3.03;;
14241;SDS011;7205;50.864;12.766;2023-07-08T10:39:57;4.65;;;2.80;;
14241;SDS011;7205;50.864;12.766;2023-07-08T10:42:43;3.22;;;2.97;;
14241;SDS011;7205;50.864;12.766;2023-07-08T10:45:20;4.00;;;3.05;;
14241;SDS011;7205;50.864;12.766;2023-07-08T10:48:01;3.33;;;3.03;;
14241;SDS011;7205;50.864;12.766;2023-07-08T10:50:42;3.30;;;2.97;;
14241;SDS011;7205;50.864;12.766;2023-07-08T10:53:30;3.28;;;2.95;;
14241;SDS011;7205;50.864;12.766;2023-07-08T10:56:11;3.72;;;2.97;;
14241;SDS011;7205;50.864;12.766;2023-07-08T11:01:44;3.42;;;3.20;;
14241;SDS011;7205;50.864;12.766;2023-07-08T11:04:28;4.20;;;3.90;;
14241;SDS011;7205;50.864;12.766;2023-07-08T11:07:09;3.35;;;3.15;;
14241;SDS011;7205;50.864;12.766;2023-07-08T11:09:40;3.97;;;3.67;;
14241;SDS011;7205;50.864;12.766;2023-07-08T11:12:17;3.63;;;3.20;;
14241;SDS011;7205;50.864;12.766;2023-07-08T11:14:54;4.15;;;3.85;;
14241;SDS011;7205;50.864;12.766;2023-07-08T11:17:29;3.92;;;3.58;;
14241;SDS011;7205;50.864;12.766;2023-07-08T11:20:02;4.00;;;3.53;;
14241;SDS011;7205;50.864;12.766;2023-07-08T11:22:41;4.05;;;3.40;;
14241;SDS011;7205;50.864;12.766;2023-07-08T11:25:16;5.50;;;3.08;;
14241;SDS011;7205;50.864;12.766;2023-07-08T11:27:46;3.83;;;3.53;;
14241;SDS011;7205;50.864;12.766;2023-07-08T11:30:20;7.25;;;3.17;;
14241;SDS011;7205;50.864;12.766;2023-07-08T11:32:52;3.20;;;3.00;;
14241;SDS011;7205;50.864;12.766;2023-07-08T11:35:27;3.38;;;3.08;;
14241;SDS011;7205;50.864;12.766;2023-07-08T11:37:59;3.95;;;3.13;;
14241;SDS011;7205;50.864;12.766;2023-07-08T11:40:28;2.95;;;2.75;;
14241;SDS011;7205;50.864;12.766;2023-07-08T11:42:59;2.78;;;2.58;;
14241;SDS011;7205;50.864;12.766;2023-07-08T11:45:30;3.22;;;2.97;;
14241;SDS011;7205;50.864;12.766;2023-07-08T11:48:03;4.65;;;3.00;;
14241;SDS011;7205;50.864;12.766;2023-07-08T11:50:32;2.75;;;2.55;;
14241;SDS011;7205;50.864;12.766;2023-07-08T11:53:06;4.00;;;3.05;;
14241;SDS011;7205;50.864;12.766;2023-07-08T11:55:35;3.40;;;3.10;;
14241;SDS011;7205;50.864;12.766;2023-07-08T11:58:07;3.15;;;2.95;;
14241;SDS011;7205;50.864;12.766;2023-07-08T12:00:35;3.17;;;2.70;;
14241;SDS011;7205;50.864;12.766;2023-07-08T12:03:16;3.45;;;3.25;;
14241;SDS011;7205;50.864;12.766;2023-07-08T12:05:45;5.50;;;3.30;;
14241;SDS011;7205;50.864;12.766;2023-07-08T12:08:13;3.53;;;3.25;;
14241;SDS011;7205;50.864;12.766;2023-07-08T12:10:45;3.03;;;2.80;;
14241;SDS011;7205;50.864;12.766;2023-07-08T12:13:17;3.38;;;3.08;;
14241;SDS011;7205;50.864;12.766;2023-07-08T12:15:47;3.88;;;2.92;;
14241;SDS011;7205;50.864;12.766;2023-07-08T12:18:15;5.07;;;2.83;;
14241;SDS011;7205;50.864;12.766;2023-07-08T12:20:47;4.07;;;2.60;;
14241;SDS011;7205;50.864;12.766;2023-07-08T12:23:18;3.00;;;2.80;;
14241;SDS011;7205;50.864;12.766;2023-07-08T12:25:47;3.30;;;3.10;;
14241;SDS011;7205;50.864;12.766;2023-07-08T12:28:15;3.30;;;3.10;;
14241;SDS011;7205;50.864;12.766;2023-07-08T12:30:43;3.10;;;2.90;;
14241;SDS011;7205;50.864;12.766;2023-07-08T12:33:13;3.15;;;2.90;;
14241;SDS011;7205;50.864;12.766;2023-07-08T12:35:43;3.22;;;2.97;;
14241;SDS011;7205;50.864;12.766;2023-07-08T12:38:16;3.20;;;2.97;;
14241;SDS011;7205;50.864;12.766;2023-07-08T12:40:46;2.83;;;2.63;;
14241;SDS011;7205;50.864;12.766;2023-07-08T12:43:17;7.72;;;3.15;;
14241;SDS011;7205;50.864;12.766;2023-07-08T12:45:44;2.53;;;2.40;;
14241;SDS011;7205;50.864;12.766;2023-07-08T12:48:11;4.15;;;2.78;;
14241;SDS011;7205;50.864;12.766;2023-07-08T12:50:40;2.78;;;2.67;;
14241;SDS011;7205;50.864;12.766;2023-07-08T12:53:07;6.38;;;2.83;;
14241;SDS011;7205;50.864;12.766;2023-07-08T12:55:35;4.45;;;3.30;;
14241;SDS011;7205;50.864;12.766;2023-07-08T12:58:03;2.90;;;2.70;;
14241;SDS011;7205;50.864;12.766;2023-07-08T13:00:34;3.28;;;2.85;;
14241;SDS011;7205;50.864;12.766;2023-07-08T13:03:05;3.33;;;2.70;;
14241;SDS011;7205;50.864;12.766;2023-07-08T13:05:34;2.78;;;2.67;;
14241;SDS011;7205;50.864;12.766;2023-07-08T13:08:02;2.95;;;2.80;;
14241;SDS011;7205;50.864;12.766;2023-07-08T13:10:31;2.80;;;2.70;;
14241;SDS011;7205;50.864;12.766;2023-07-08T13:13:02;3.10;;;2.90;;
14241;SDS011;7205;50.864;12.766;2023-07-08T13:15:34;2.85;;;2.65;;
14241;SDS011;7205;50.864;12.766;2023-07-08T13:18:04;3.25;;;3.03;;
14241;SDS011;7205;50.864;12.766;2023-07-08T13:20:31;4.35;;;2.53;;
14241;SDS011;7205;50.864;12.766;2023-07-08T13:22:59;4.43;;;2.80;;
14241;SDS011;7205;50.864;12.766;2023-07-08T13:25:29;2.60;;;2.50;;
14241;SDS011;7205;50.864;12.766;2023-07-08T13:27:58;3.30;;;3.10;;
14241;SDS011;7205;50.864;12.766;2023-07-08T13:30:27;4.20;;;2.90;;
14241;SDS011;7205;50.864;12.766;2023-07-08T13:32:57;2.60;;;2.47;;
14241;SDS011;7205;50.864;12.766;2023-07-08T13:35:27;3.05;;;2.80;;
14241;SDS011;7205;50.864;12.766;2023-07-08T13:38:00;4.28;;;2.70;;
14241;SDS011;7205;50.864;12.766;2023-07-08T13:40:28;6.10;;;2.80;;
14241;SDS011;7205;50.864;12.766;2023-07-08T13:42:55;4.07;;;2.95;;
14241;SDS011;7205;50.864;12.766;2023-07-08T13:45:24;3.10;;;2.90;;
14241;SDS011;7205;50.864;12.766;2023-07-08T13:48:01;2.70;;;2.38;;
14241;SDS011;7205;50.864;12.766;2023-07-08T13:50:38;3.05;;;2.85;;
14241;SDS011;7205;50.864;12.766;2023-07-08T13:53:20;5.25;;;3.00;;
14241;SDS011;7205;50.864;12.766;2023-07-08T13:55:56;2.80;;;2.60;;
14241;SDS011;7205;50.864;12.766;2023-07-08T13:58:26;3.17;;;2.60;;
14241;SDS011;7205;50.864;12.766;2023-07-08T14:00:56;2.95;;;2.53;;
14241;SDS011;7205;50.864;12.766;2023-07-08T14:03:25;3.50;;;2.72;;
14241;SDS011;7205;50.864;12.766;2023-07-08T14:05:52;3.60;;;3.00;;
14241;SDS011;7205;50.864;12.766;2023-07-08T14:08:18;2.95;;;2.70;;
14241;SDS011;7205;50.864;12.766;2023-07-08T14:10:47;2.83;;;2.50;;
14241;SDS011;7205;50.864;12.766;2023-07-08T14:13:14;5.50;;;2.83;;
14241;SDS011;7205;50.864;12.766;2023-07-08T14:15:43;2.35;;;2.25;;
14241;SDS011;7205;50.864;12.766;2023-07-08T14:18:10;8.32;;;2.95;;
14241;SDS011;7205;50.864;12.766;2023-07-08T14:20:39;2.92;;;2.72;;
14241;SDS011;7205;50.864;12.766;2023-07-08T14:23:08;2.60;;;2.40;;
14241;SDS011;7205;50.864;12.766;2023-07-08T14:25:36;3.65;;;3.05;;
14241;SDS011;7205;50.864;12.766;2023-07-08T14:28:03;3.08;;;2.40;;
14241;SDS011;7205;50.864;12.766;2023-07-08T14:30:31;3.67;;;2.65;;
14241;SDS011;7205;50.864;12.766;2023-07-08T14:32:58;2.92;;;2.60;;
14241;SDS011;7205;50.864;12.766;2023-07-08T14:35:25;2.97;;;2.78;;
14241;SDS011;7205;50.864;12.766;2023-07-08T14:37:55;2.83;;;2.65;;
14241;SDS011;7205;50.864;12.766;2023-07-08T14:40:24;3.47;;;2.65;;
14241;SDS011;7205;50.864;12.766;2023-07-08T14:42:55;4.90;;;2.70;;
14241;SDS011;7205;50.864;12.766;2023-07-08T14:45:28;3.78;;;2.35;;
14241;SDS011;7205;50.864;12.766;2023-07-08T14:47:56;3.08;;;2.70;;
14241;SDS011;7205;50.864;12.766;2023-07-08T14:50:23;3.58;;;3.00;;
14241;SDS011;7205;50.864;12.766;2023-07-08T14:52:51;3.55;;;2.55;;
14241;SDS011;7205;50.864;12.766;2023-07-08T14:55:19;3.55;;;3.22;;
14241;SDS011;7205;50.864;12.766;2023-07-08T14:57:46;3.58;;;2.67;;
14241;SDS011;7205;50.864;12.766;2023-07-08T15:00:15;3.10;;;2.90;;
14241;SDS011;7205;50.864;12.766;2023-07-08T15:02:44;3.85;;;2.40;;
14241;SDS011;7205;50.864;12.766;2023-07-08T15:05:17;2.67;;;2.47;;